Terminal Aerodrome Forecast
Issued by NWS Charleston, SC

Home | Current Version | Previous Version | Text Only | Print | Product List | Glossary On
Versions: 1 2 3 4 5 6 7 8 9 10 11 12
000
FTUS42 KCHS 070522
TAFSAV
TAF
KSAV 070522Z 0706/0806 VRB03KT P6SM SCT200
     FM071100 33010KT P6SM FEW040 SCT200
     FM071400 35014G22KT P6SM SCT050
     FM080000 34010KT P6SM BKN040=

USA.gov is the U.S. government's official web portal to all federal, state and local government web resources and services.